sensor_id;sensor_type;location;lat;lon;timestamp;temperature;humidity
22738;DHT22;11536;50.860;4.286;2023-07-16T00:01:58;19.50;99.90
22738;DHT22;11536;50.860;4.286;2023-07-16T00:04:24;19.50;99.90
22738;DHT22;11536;50.860;4.286;2023-07-16T00:06:49;19.40;99.90
22738;DHT22;11536;50.860;4.286;2023-07-16T00:09:15;19.40;99.90
22738;DHT22;11536;50.860;4.286;2023-07-16T00:11:41;19.40;99.90
22738;DHT22;11536;50.860;4.286;2023-07-16T00:14:07;19.40;99.90
22738;DHT22;11536;50.860;4.286;2023-07-16T00:16:32;19.30;99.90
22738;DHT22;11536;50.860;4.286;2023-07-16T00:18:58;19.30;99.90
22738;DHT22;11536;50.860;4.286;2023-07-16T00:21:24;19.30;99.90
22738;DHT22;11536;50.860;4.286;2023-07-16T00:23:50;19.30;99.90
22738;DHT22;11536;50.860;4.286;2023-07-16T00:26:16;19.30;99.90
22738;DHT22;11536;50.860;4.286;2023-07-16T00:28:41;19.30;99.90
22738;DHT22;11536;50.860;4.286;2023-07-16T00:31:07;19.20;99.90
22738;DHT22;11536;50.860;4.286;2023-07-16T00:33:32;19.20;99.90
22738;DHT22;11536;50.860;4.286;2023-07-16T00:35:58;19.20;99.90
22738;DHT22;11536;50.860;4.286;2023-07-16T00:38:24;19.20;99.90
22738;DHT22;11536;50.860;4.286;2023-07-16T00:40:50;19.20;99.90
22738;DHT22;11536;50.860;4.286;2023-07-16T00:43:15;19.10;99.90
22738;DHT22;11536;50.860;4.286;2023-07-16T00:45:42;19.10;99.90
22738;DHT22;11536;50.860;4.286;2023-07-16T00:48:10;19.10;99.90
22738;DHT22;11536;50.860;4.286;2023-07-16T00:50:38;19.10;99.90
22738;DHT22;11536;50.860;4.286;2023-07-16T00:53:06;19.00;99.90
22738;DHT22;11536;50.860;4.286;2023-07-16T00:55:32;19.00;99.90
22738;DHT22;11536;50.860;4.286;2023-07-16T00:58:02;19.00;99.90
22738;DHT22;11536;50.860;4.286;2023-07-16T01:00:31;18.90;99.90
22738;DHT22;11536;50.860;4.286;2023-07-16T01:02:56;18.90;99.90
22738;DHT22;11536;50.860;4.286;2023-07-16T01:05:24;18.90;99.90
22738;DHT22;11536;50.860;4.286;2023-07-16T01:07:56;18.90;99.90
22738;DHT22;11536;50.860;4.286;2023-07-16T01:10:23;18.80;99.90
22738;DHT22;11536;50.860;4.286;2023-07-16T01:12:50;18.80;99.90
22738;DHT22;11536;50.860;4.286;2023-07-16T01:15:17;18.80;99.90
22738;DHT22;11536;50.860;4.286;2023-07-16T01:17:42;18.80;99.90
22738;DHT22;11536;50.860;4.286;2023-07-16T01:20:08;18.70;99.90
22738;DHT22;11536;50.860;4.286;2023-07-16T01:23:05;18.70;99.90
22738;DHT22;11536;50.860;4.286;2023-07-16T01:26:05;18.70;99.90
22738;DHT22;11536;50.860;4.286;2023-07-16T01:31:35;18.50;99.90
22738;DHT22;11536;50.860;4.286;2023-07-16T01:34:03;18.50;99.90
22738;DHT22;11536;50.860;4.286;2023-07-16T01:36:31;18.50;99.90
22738;DHT22;11536;50.860;4.286;2023-07-16T01:38:57;18.50;99.90
22738;DHT22;11536;50.860;4.286;2023-07-16T01:41:22;18.40;99.90
22738;DHT22;11536;50.860;4.286;2023-07-16T01:43:50;18.40;99.90
22738;DHT22;11536;50.860;4.286;2023-07-16T01:46:15;18.40;99.90
22738;DHT22;11536;50.860;4.286;2023-07-16T01:48:41;18.40;99.90
22738;DHT22;11536;50.860;4.286;2023-07-16T01:51:07;18.40;99.90
22738;DHT22;11536;50.860;4.286;2023-07-16T01:53:32;18.40;99.90
22738;DHT22;11536;50.860;4.286;2023-07-16T01:56:01;18.40;99.90
22738;DHT22;11536;50.860;4.286;2023-07-16T01:58:27;18.40;99.90
22738;DHT22;11536;50.860;4.286;2023-07-16T02:00:53;18.30;99.90
22738;DHT22;11536;50.860;4.286;2023-07-16T02:03:19;18.40;99.90
22738;DHT22;11536;50.860;4.286;2023-07-16T02:05:44;18.30;99.90
22738;DHT22;11536;50.860;4.286;2023-07-16T02:08:10;18.30;99.90
22738;DHT22;11536;50.860;4.286;2023-07-16T02:10:35;18.30;99.90
22738;DHT22;11536;50.860;4.286;2023-07-16T02:13:01;18.30;99.90
22738;DHT22;11536;50.860;4.286;2023-07-16T02:15:26;18.20;99.90
22738;DHT22;11536;50.860;4.286;2023-07-16T02:17:52;18.20;99.90
22738;DHT22;11536;50.860;4.286;2023-07-16T02:20:18;18.20;99.90
22738;DHT22;11536;50.860;4.286;2023-07-16T02:22:43;18.10;99.90
22738;DHT22;11536;50.860;4.286;2023-07-16T02:25:09;18.10;99.90
22738;DHT22;11536;50.860;4.286;2023-07-16T02:27:34;18.10;99.90
22738;DHT22;11536;50.860;4.286;2023-07-16T02:30:00;18.10;99.90
22738;DHT22;11536;50.860;4.286;2023-07-16T02:32:26;18.00;99.90
22738;DHT22;11536;50.860;4.286;2023-07-16T02:34:51;18.00;99.90
22738;DHT22;11536;50.860;4.286;2023-07-16T02:37:17;18.00;99.90
22738;DHT22;11536;50.860;4.286;2023-07-16T02:39:44;18.00;99.90
22738;DHT22;11536;50.860;4.286;2023-07-16T02:42:11;18.00;99.90
22738;DHT22;11536;50.860;4.286;2023-07-16T02:44:37;18.00;99.90
22738;DHT22;11536;50.860;4.286;2023-07-16T02:47:07;18.00;99.90
22738;DHT22;11536;50.860;4.286;2023-07-16T02:49:33;17.90;99.90
22738;DHT22;11536;50.860;4.286;2023-07-16T02:51:58;17.90;99.90
22738;DHT22;11536;50.860;4.286;2023-07-16T02:54:24;17.90;99.90
22738;DHT22;11536;50.860;4.286;2023-07-16T02:56:49;17.90;99.90
22738;DHT22;11536;50.860;4.286;2023-07-16T02:59:15;17.90;99.90
22738;DHT22;11536;50.860;4.286;2023-07-16T03:01:40;18.00;99.90
22738;DHT22;11536;50.860;4.286;2023-07-16T03:04:06;18.00;99.90
22738;DHT22;11536;50.860;4.286;2023-07-16T03:06:32;17.90;99.90
22738;DHT22;11536;50.860;4.286;2023-07-16T03:08:57;17.90;99.90
22738;DHT22;11536;50.860;4.286;2023-07-16T03:11:23;17.90;99.90
22738;DHT22;11536;50.860;4.286;2023-07-16T03:13:49;17.90;99.90
22738;DHT22;11536;50.860;4.286;2023-07-16T03:16:14;17.90;99.90
22738;DHT22;11536;50.860;4.286;2023-07-16T03:18:40;17.90;99.90
22738;DHT22;11536;50.860;4.286;2023-07-16T03:21:06;17.90;99.90
22738;DHT22;11536;50.860;4.286;2023-07-16T03:23:31;17.90;99.90
22738;DHT22;11536;50.860;4.286;2023-07-16T03:25:57;17.90;99.90
22738;DHT22;11536;50.860;4.286;2023-07-16T03:28:22;17.80;99.90
22738;DHT22;11536;50.860;4.286;2023-07-16T03:30:49;17.80;99.90
22738;DHT22;11536;50.860;4.286;2023-07-16T03:33:18;17.80;99.90
22738;DHT22;11536;50.860;4.286;2023-07-16T03:35:45;17.80;99.90
22738;DHT22;11536;50.860;4.286;2023-07-16T03:38:14;17.80;99.90
22738;DHT22;11536;50.860;4.286;2023-07-16T03:40:41;17.80;99.90
22738;DHT22;11536;50.860;4.286;2023-07-16T03:43:07;17.70;99.90
22738;DHT22;11536;50.860;4.286;2023-07-16T03:45:33;17.80;99.90
22738;DHT22;11536;50.860;4.286;2023-07-16T03:47:59;17.80;99.90
22738;DHT22;11536;50.860;4.286;2023-07-16T03:50:24;17.80;99.90
22738;DHT22;11536;50.860;4.286;2023-07-16T03:52:50;17.70;99.90
22738;DHT22;11536;50.860;4.286;2023-07-16T03:55:16;17.80;99.90
22738;DHT22;11536;50.860;4.286;2023-07-16T03:57:42;17.80;99.90
22738;DHT22;11536;50.860;4.286;2023-07-16T04:00:08;17.80;99.90
22738;DHT22;11536;50.860;4.286;2023-07-16T04:02:35;17.80;99.90
22738;DHT22;11536;50.860;4.286;2023-07-16T04:05:02;17.80;99.90
22738;DHT22;11536;50.860;4.286;2023-07-16T04:07:27;17.70;99.90
22738;DHT22;11536;50.860;4.286;2023-07-16T04:09:53;17.70;99.90
22738;DHT22;11536;50.860;4.286;2023-07-16T04:12:19;17.70;99.90
22738;DHT22;11536;50.860;4.286;2023-07-16T04:14:59;17.70;99.90
22738;DHT22;11536;50.860;4.286;2023-07-16T04:17:25;17.60;99.90
22738;DHT22;11536;50.860;4.286;2023-07-16T04:19:51;17.70;99.90
22738;DHT22;11536;50.860;4.286;2023-07-16T04:22:17;17.60;99.90
22738;DHT22;11536;50.860;4.286;2023-07-16T04:24:43;17.60;99.90
22738;DHT22;11536;50.860;4.286;2023-07-16T04:27:09;17.60;99.90
22738;DHT22;11536;50.860;4.286;2023-07-16T04:29:34;17.60;99.90
22738;DHT22;11536;50.860;4.286;2023-07-16T04:32:00;17.60;99.90
22738;DHT22;11536;50.860;4.286;2023-07-16T04:34:25;17.60;99.90
22738;DHT22;11536;50.860;4.286;2023-07-16T04:36:51;17.60;99.90
22738;DHT22;11536;50.860;4.286;2023-07-16T04:39:17;17.60;99.90
22738;DHT22;11536;50.860;4.286;2023-07-16T04:41:42;17.60;99.90
22738;DHT22;11536;50.860;4.286;2023-07-16T04:44:08;17.70;99.90
22738;DHT22;11536;50.860;4.286;2023-07-16T04:46:34;17.60;99.90
22738;DHT22;11536;50.860;4.286;2023-07-16T04:49:02;17.60;99.90
22738;DHT22;11536;50.860;4.286;2023-07-16T04:51:28;17.60;99.90
22738;DHT22;11536;50.860;4.286;2023-07-16T04:53:55;17.60;99.90
22738;DHT22;11536;50.860;4.286;2023-07-16T04:56:20;17.60;99.90
22738;DHT22;11536;50.860;4.286;2023-07-16T04:58:46;17.60;99.90
22738;DHT22;11536;50.860;4.286;2023-07-16T05:01:11;17.60;99.90
22738;DHT22;11536;50.860;4.286;2023-07-16T05:03:37;17.60;99.90
22738;DHT22;11536;50.860;4.286;2023-07-16T05:06:03;17.60;99.90
22738;DHT22;11536;50.860;4.286;2023-07-16T05:08:29;17.60;99.90
22738;DHT22;11536;50.860;4.286;2023-07-16T05:10:55;17.60;99.90
22738;DHT22;11536;50.860;4.286;2023-07-16T05:13:21;17.60;99.90
22738;DHT22;11536;50.860;4.286;2023-07-16T05:15:46;17.70;99.90
22738;DHT22;11536;50.860;4.286;2023-07-16T05:18:12;17.70;99.90
22738;DHT22;11536;50.860;4.286;2023-07-16T05:20:38;17.70;99.90
22738;DHT22;11536;50.860;4.286;2023-07-16T05:23:04;17.70;99.90
22738;DHT22;11536;50.860;4.286;2023-07-16T05:25:29;17.80;99.90
22738;DHT22;11536;50.860;4.286;2023-07-16T05:27:55;17.80;99.90
22738;DHT22;11536;50.860;4.286;2023-07-16T05:30:21;17.80;99.90
22738;DHT22;11536;50.860;4.286;2023-07-16T05:32:47;17.80;99.90
22738;DHT22;11536;50.860;4.286;2023-07-16T05:35:12;17.90;99.90
22738;DHT22;11536;50.860;4.286;2023-07-16T05:37:38;17.90;99.90
22738;DHT22;11536;50.860;4.286;2023-07-16T05:40:04;17.90;99.90
22738;DHT22;11536;50.860;4.286;2023-07-16T05:42:30;17.90;99.90
22738;DHT22;11536;50.860;4.286;2023-07-16T05:44:55;17.90;99.90
22738;DHT22;11536;50.860;4.286;2023-07-16T05:47:21;18.00;99.90
22738;DHT22;11536;50.860;4.286;2023-07-16T05:49:47;18.00;99.90
22738;DHT22;11536;50.860;4.286;2023-07-16T05:52:13;18.00;99.90
22738;DHT22;11536;50.860;4.286;2023-07-16T05:54:38;18.00;99.90
22738;DHT22;11536;50.860;4.286;2023-07-16T05:57:04;18.00;99.90
22738;DHT22;11536;50.860;4.286;2023-07-16T05:59:30;18.10;99.90
22738;DHT22;11536;50.860;4.286;2023-07-16T06:01:59;18.10;99.90
22738;DHT22;11536;50.860;4.286;2023-07-16T06:04:25;18.10;99.90
22738;DHT22;11536;50.860;4.286;2023-07-16T06:06:51;18.10;99.90
22738;DHT22;11536;50.860;4.286;2023-07-16T06:09:19;18.20;99.90
22738;DHT22;11536;50.860;4.286;2023-07-16T06:11:48;18.10;99.90
22738;DHT22;11536;50.860;4.286;2023-07-16T06:14:13;18.20;99.90
22738;DHT22;11536;50.860;4.286;2023-07-16T06:16:39;18.20;99.90
22738;DHT22;11536;50.860;4.286;2023-07-16T06:19:04;18.30;99.90
22738;DHT22;11536;50.860;4.286;2023-07-16T06:21:30;18.30;99.90
22738;DHT22;11536;50.860;4.286;2023-07-16T06:23:56;18.30;99.90
22738;DHT22;11536;50.860;4.286;2023-07-16T06:26:23;18.40;99.90
22738;DHT22;11536;50.860;4.286;2023-07-16T06:28:48;18.40;99.90
22738;DHT22;11536;50.860;4.286;2023-07-16T06:31:16;18.50;99.90
22738;DHT22;11536;50.860;4.286;2023-07-16T06:33:42;18.50;99.90
22738;DHT22;11536;50.860;4.286;2023-07-16T06:36:07;18.60;99.90
22738;DHT22;11536;50.860;4.286;2023-07-16T06:38:33;18.60;99.90
22738;DHT22;11536;50.860;4.286;2023-07-16T06:40:58;18.70;99.90
22738;DHT22;11536;50.860;4.286;2023-07-16T06:43:24;18.70;99.90
22738;DHT22;11536;50.860;4.286;2023-07-16T06:45:50;18.80;99.90
22738;DHT22;11536;50.860;4.286;2023-07-16T06:48:18;18.80;99.90
22738;DHT22;11536;50.860;4.286;2023-07-16T06:50:44;18.80;99.90
22738;DHT22;11536;50.860;4.286;2023-07-16T06:53:10;18.80;99.90
22738;DHT22;11536;50.860;4.286;2023-07-16T06:55:36;18.90;99.90
22738;DHT22;11536;50.860;4.286;2023-07-16T06:58:02;18.90;99.90
22738;DHT22;11536;50.860;4.286;2023-07-16T07:00:28;18.90;99.90
22738;DHT22;11536;50.860;4.286;2023-07-16T07:02:54;19.00;99.90
22738;DHT22;11536;50.860;4.286;2023-07-16T07:05:20;19.00;99.90
22738;DHT22;11536;50.860;4.286;2023-07-16T07:07:46;19.10;99.90
22738;DHT22;11536;50.860;4.286;2023-07-16T07:10:12;19.10;99.90
22738;DHT22;11536;50.860;4.286;2023-07-16T07:12:38;19.10;99.90
22738;DHT22;11536;50.860;4.286;2023-07-16T07:15:07;19.10;99.90
22738;DHT22;11536;50.860;4.286;2023-07-16T07:17:33;19.20;99.90
22738;DHT22;11536;50.860;4.286;2023-07-16T07:19:59;19.20;99.90
22738;DHT22;11536;50.860;4.286;2023-07-16T07:22:25;19.20;99.90
22738;DHT22;11536;50.860;4.286;2023-07-16T07:24:51;19.20;99.90
22738;DHT22;11536;50.860;4.286;2023-07-16T07:27:16;19.30;99.90
22738;DHT22;11536;50.860;4.286;2023-07-16T07:29:42;19.20;99.90
22738;DHT22;11536;50.860;4.286;2023-07-16T07:32:08;19.20;99.90
22738;DHT22;11536;50.860;4.286;2023-07-16T07:34:33;19.30;99.90
22738;DHT22;11536;50.860;4.286;2023-07-16T07:36:59;19.30;99.90
22738;DHT22;11536;50.860;4.286;2023-07-16T07:39:24;19.40;99.90
22738;DHT22;11536;50.860;4.286;2023-07-16T07:41:50;19.40;99.90
22738;DHT22;11536;50.860;4.286;2023-07-16T07:44:16;19.50;99.90
22738;DHT22;11536;50.860;4.286;2023-07-16T07:46:41;19.50;99.90
22738;DHT22;11536;50.860;4.286;2023-07-16T07:49:07;19.60;99.90
22738;DHT22;11536;50.860;4.286;2023-07-16T07:51:32;19.60;99.90
22738;DHT22;11536;50.860;4.286;2023-07-16T07:53:58;19.70;99.90
22738;DHT22;11536;50.860;4.286;2023-07-16T07:56:24;19.70;99.90
22738;DHT22;11536;50.860;4.286;2023-07-16T07:58:49;19.80;99.90
22738;DHT22;11536;50.860;4.286;2023-07-16T08:01:15;19.80;99.90
22738;DHT22;11536;50.860;4.286;2023-07-16T08:03:40;19.80;99.90
22738;DHT22;11536;50.860;4.286;2023-07-16T08:06:06;19.90;99.90
22738;DHT22;11536;50.860;4.286;2023-07-16T08:08:31;19.90;99.90
22738;DHT22;11536;50.860;4.286;2023-07-16T08:10:57;19.90;99.90
22738;DHT22;11536;50.860;4.286;2023-07-16T08:13:23;19.90;99.90
22738;DHT22;11536;50.860;4.286;2023-07-16T08:15:49;20.00;99.90
22738;DHT22;11536;50.860;4.286;2023-07-16T08:18:15;20.10;99.90
22738;DHT22;11536;50.860;4.286;2023-07-16T08:20:41;20.10;99.90
22738;DHT22;11536;50.860;4.286;2023-07-16T08:23:06;20.20;99.90
22738;DHT22;11536;50.860;4.286;2023-07-16T08:25:32;20.30;99.90
22738;DHT22;11536;50.860;4.286;2023-07-16T08:27:57;20.30;99.90
22738;DHT22;11536;50.860;4.286;2023-07-16T08:30:23;20.30;99.90
22738;DHT22;11536;50.860;4.286;2023-07-16T08:32:49;20.30;99.90
22738;DHT22;11536;50.860;4.286;2023-07-16T08:35:15;20.40;99.90
22738;DHT22;11536;50.860;4.286;2023-07-16T08:37:45;20.40;99.90
22738;DHT22;11536;50.860;4.286;2023-07-16T08:40:12;20.50;99.90
22738;DHT22;11536;50.860;4.286;2023-07-16T08:42:39;20.50;99.90
22738;DHT22;11536;50.860;4.286;2023-07-16T08:45:10;20.60;99.90
22738;DHT22;11536;50.860;4.286;2023-07-16T08:47:36;20.60;99.90
22738;DHT22;11536;50.860;4.286;2023-07-16T08:50:02;20.60;99.90
22738;DHT22;11536;50.860;4.286;2023-07-16T08:52:28;20.70;99.90
22738;DHT22;11536;50.860;4.286;2023-07-16T08:54:54;20.60;99.90
22738;DHT22;11536;50.860;4.286;2023-07-16T08:57:20;20.60;99.90
22738;DHT22;11536;50.860;4.286;2023-07-16T08:59:50;20.60;99.90
22738;DHT22;11536;50.860;4.286;2023-07-16T09:02:19;20.50;99.90
22738;DHT22;11536;50.860;4.286;2023-07-16T09:04:48;20.60;99.90
22738;DHT22;11536;50.860;4.286;2023-07-16T09:07:15;20.60;99.90
22738;DHT22;11536;50.860;4.286;2023-07-16T09:09:41;20.70;99.90
22738;DHT22;11536;50.860;4.286;2023-07-16T09:12:11;20.70;99.90
22738;DHT22;11536;50.860;4.286;2023-07-16T09:14:37;20.80;99.90
22738;DHT22;11536;50.860;4.286;2023-07-16T09:17:03;20.80;99.90
22738;DHT22;11536;50.860;4.286;2023-07-16T09:19:32;20.70;99.90
22738;DHT22;11536;50.860;4.286;2023-07-16T09:21:57;20.80;99.90
22738;DHT22;11536;50.860;4.286;2023-07-16T09:24:23;20.70;99.90
22738;DHT22;11536;50.860;4.286;2023-07-16T09:26:53;20.80;99.90
22738;DHT22;11536;50.860;4.286;2023-07-16T09:29:20;20.80;99.90
22738;DHT22;11536;50.860;4.286;2023-07-16T09:31:56;20.80;99.90
22738;DHT22;11536;50.860;4.286;2023-07-16T09:34:22;20.80;99.90
22738;DHT22;11536;50.860;4.286;2023-07-16T09:36:49;20.80;99.90
22738;DHT22;11536;50.860;4.286;2023-07-16T09:39:18;20.90;99.90
22738;DHT22;11536;50.860;4.286;2023-07-16T09:41:48;20.80;99.90
22738;DHT22;11536;50.860;4.286;2023-07-16T09:44:14;20.80;99.90
22738;DHT22;11536;50.860;4.286;2023-07-16T09:46:42;20.80;99.90
22738;DHT22;11536;50.860;4.286;2023-07-16T09:49:09;20.80;99.90
22738;DHT22;11536;50.860;4.286;2023-07-16T09:51:37;20.80;99.90
22738;DHT22;11536;50.860;4.286;2023-07-16T09:54:04;20.80;99.90
22738;DHT22;11536;50.860;4.286;2023-07-16T09:56:39;20.80;99.90
22738;DHT22;11536;50.860;4.286;2023-07-16T09:59:09;20.70;99.90
22738;DHT22;11536;50.860;4.286;2023-07-16T10:01:37;20.70;99.90
22738;DHT22;11536;50.860;4.286;2023-07-16T10:04:19;20.70;99.90
22738;DHT22;11536;50.860;4.286;2023-07-16T10:09:41;20.70;99.90
22738;DHT22;11536;50.860;4.286;2023-07-16T10:12:11;20.70;99.90
22738;DHT22;11536;50.860;4.286;2023-07-16T10:14:44;20.70;99.90
22738;DHT22;11536;50.860;4.286;2023-07-16T10:17:14;20.70;99.90
22738;DHT22;11536;50.860;4.286;2023-07-16T10:22:18;20.60;99.90
22738;DHT22;11536;50.860;4.286;2023-07-16T10:24:44;20.60;99.90
22738;DHT22;11536;50.860;4.286;2023-07-16T10:27:34;20.60;99.90
22738;DHT22;11536;50.860;4.286;2023-07-16T10:30:03;20.60;99.90
22738;DHT22;11536;50.860;4.286;2023-07-16T10:32:32;20.60;99.90
22738;DHT22;11536;50.860;4.286;2023-07-16T10:34:58;20.70;99.90
22738;DHT22;11536;50.860;4.286;2023-07-16T10:37:24;20.70;99.90
22738;DHT22;11536;50.860;4.286;2023-07-16T10:39:53;20.80;99.90
22738;DHT22;11536;50.860;4.286;2023-07-16T10:42:21;20.80;99.90
22738;DHT22;11536;50.860;4.286;2023-07-16T10:44:52;20.90;99.90
22738;DHT22;11536;50.860;4.286;2023-07-16T10:47:20;20.90;99.90
22738;DHT22;11536;50.860;4.286;2023-07-16T10:49:46;20.90;99.90
22738;DHT22;11536;50.860;4.286;2023-07-16T10:52:12;20.90;99.90
22738;DHT22;11536;50.860;4.286;2023-07-16T10:54:40;20.90;99.90
22738;DHT22;11536;50.860;4.286;2023-07-16T10:57:06;20.80;99.90
22738;DHT22;11536;50.860;4.286;2023-07-16T10:59:31;20.80;99.90
22738;DHT22;11536;50.860;4.286;2023-07-16T11:01:58;20.80;99.90
22738;DHT22;11536;50.860;4.286;2023-07-16T11:04:23;20.80;99.90
22738;DHT22;11536;50.860;4.286;2023-07-16T11:06:52;20.90;99.90
22738;DHT22;11536;50.860;4.286;2023-07-16T11:09:18;20.80;99.90
22738;DHT22;11536;50.860;4.286;2023-07-16T11:11:43;20.90;99.90
22738;DHT22;11536;50.860;4.286;2023-07-16T11:14:09;20.90;99.90
22738;DHT22;11536;50.860;4.286;2023-07-16T11:16:35;20.90;99.90
22738;DHT22;11536;50.860;4.286;2023-07-16T11:19:05;20.90;99.90
22738;DHT22;11536;50.860;4.286;2023-07-16T11:21:33;21.00;99.90
22738;DHT22;11536;50.860;4.286;2023-07-16T11:24:12;21.00;99.90
22738;DHT22;11536;50.860;4.286;2023-07-16T11:26:38;21.00;99.90
22738;DHT22;11536;50.860;4.286;2023-07-16T11:29:13;21.10;99.90
22738;DHT22;11536;50.860;4.286;2023-07-16T11:31:40;21.10;99.90
22738;DHT22;11536;50.860;4.286;2023-07-16T11:34:07;21.30;99.90
22738;DHT22;11536;50.860;4.286;2023-07-16T11:36:33;21.40;99.90
22738;DHT22;11536;50.860;4.286;2023-07-16T11:38:59;21.50;99.90
22738;DHT22;11536;50.860;4.286;2023-07-16T11:41:25;21.60;99.90
22738;DHT22;11536;50.860;4.286;2023-07-16T11:43:50;21.70;99.90
22738;DHT22;11536;50.860;4.286;2023-07-16T11:46:17;21.80;99.90
22738;DHT22;11536;50.860;4.286;2023-07-16T11:48:42;21.80;99.90
22738;DHT22;11536;50.860;4.286;2023-07-16T11:51:08;21.90;99.90
22738;DHT22;11536;50.860;4.286;2023-07-16T11:53:34;22.10;99.90
22738;DHT22;11536;50.860;4.286;2023-07-16T11:55:59;22.20;99.90
22738;DHT22;11536;50.860;4.286;2023-07-16T11:58:25;22.30;99.90
22738;DHT22;11536;50.860;4.286;2023-07-16T12:00:51;22.40;99.90
22738;DHT22;11536;50.860;4.286;2023-07-16T12:03:16;22.40;99.90
22738;DHT22;11536;50.860;4.286;2023-07-16T12:05:43;22.40;99.90
22738;DHT22;11536;50.860;4.286;2023-07-16T12:08:09;22.40;99.90
22738;DHT22;11536;50.860;4.286;2023-07-16T12:10:40;22.40;99.90
22738;DHT22;11536;50.860;4.286;2023-07-16T12:13:06;22.40;99.90
22738;DHT22;11536;50.860;4.286;2023-07-16T12:15:32;22.40;99.90
22738;DHT22;11536;50.860;4.286;2023-07-16T12:17:59;22.40;99.90
22738;DHT22;11536;50.860;4.286;2023-07-16T12:20:25;22.40;99.90
22738;DHT22;11536;50.860;4.286;2023-07-16T12:22:50;22.30;99.90
22738;DHT22;11536;50.860;4.286;2023-07-16T12:25:16;22.30;99.90
22738;DHT22;11536;50.860;4.286;2023-07-16T12:27:42;22.20;99.90
22738;DHT22;11536;50.860;4.286;2023-07-16T12:30:07;22.20;99.90
22738;DHT22;11536;50.860;4.286;2023-07-16T12:32:33;22.10;99.90
22738;DHT22;11536;50.860;4.286;2023-07-16T12:34:59;22.00;99.90
22738;DHT22;11536;50.860;4.286;2023-07-16T12:37:26;21.90;99.90
22738;DHT22;11536;50.860;4.286;2023-07-16T12:39:51;21.90;99.90
22738;DHT22;11536;50.860;4.286;2023-07-16T12:42:17;22.00;99.90
22738;DHT22;11536;50.860;4.286;2023-07-16T12:44:42;22.10;99.90
22738;DHT22;11536;50.860;4.286;2023-07-16T12:47:08;22.20;99.90
22738;DHT22;11536;50.860;4.286;2023-07-16T12:49:34;22.20;99.90
22738;DHT22;11536;50.860;4.286;2023-07-16T12:52:00;22.30;99.90
22738;DHT22;11536;50.860;4.286;2023-07-16T12:54:26;22.40;99.90
22738;DHT22;11536;50.860;4.286;2023-07-16T12:56:51;22.50;99.90
22738;DHT22;11536;50.860;4.286;2023-07-16T12:59:17;22.50;99.90
22738;DHT22;11536;50.860;4.286;2023-07-16T13:01:42;22.60;99.90
22738;DHT22;11536;50.860;4.286;2023-07-16T13:04:08;22.70;99.90
22738;DHT22;11536;50.860;4.286;2023-07-16T13:06:34;22.70;99.90
22738;DHT22;11536;50.860;4.286;2023-07-16T13:08:59;22.90;99.90
22738;DHT22;11536;50.860;4.286;2023-07-16T13:11:25;23.00;99.90
22738;DHT22;11536;50.860;4.286;2023-07-16T13:13:51;23.00;99.90
22738;DHT22;11536;50.860;4.286;2023-07-16T13:16:16;23.00;99.90
22738;DHT22;11536;50.860;4.286;2023-07-16T13:18:42;23.10;99.90
22738;DHT22;11536;50.860;4.286;2023-07-16T13:21:08;23.10;99.90
22738;DHT22;11536;50.860;4.286;2023-07-16T13:23:33;23.10;99.90
22738;DHT22;11536;50.860;4.286;2023-07-16T13:25:59;23.00;99.90
22738;DHT22;11536;50.860;4.286;2023-07-16T13:28:24;23.00;99.90
22738;DHT22;11536;50.860;4.286;2023-07-16T13:30:50;22.90;99.90
22738;DHT22;11536;50.860;4.286;2023-07-16T13:33:16;22.80;99.90
22738;DHT22;11536;50.860;4.286;2023-07-16T13:35:41;22.80;99.90
22738;DHT22;11536;50.860;4.286;2023-07-16T13:38:07;22.70;99.90
22738;DHT22;11536;50.860;4.286;2023-07-16T13:40:32;22.70;99.90
22738;DHT22;11536;50.860;4.286;2023-07-16T13:42:58;22.70;99.90
22738;DHT22;11536;50.860;4.286;2023-07-16T13:45:24;22.70;99.90
22738;DHT22;11536;50.860;4.286;2023-07-16T13:47:50;22.70;99.90
22738;DHT22;11536;50.860;4.286;2023-07-16T13:50:19;22.60;99.80
22738;DHT22;11536;50.860;4.286;2023-07-16T13:52:45;22.60;99.90
22738;DHT22;11536;50.860;4.286;2023-07-16T13:55:10;22.50;99.90
22738;DHT22;11536;50.860;4.286;2023-07-16T13:57:36;22.50;99.90
22738;DHT22;11536;50.860;4.286;2023-07-16T14:00:02;22.50;99.70
22738;DHT22;11536;50.860;4.286;2023-07-16T14:02:29;22.50;99.70
22738;DHT22;11536;50.860;4.286;2023-07-16T14:04:55;22.50;99.90
22738;DHT22;11536;50.860;4.286;2023-07-16T14:07:20;22.60;99.90
22738;DHT22;11536;50.860;4.286;2023-07-16T14:09:46;22.60;99.90
22738;DHT22;11536;50.860;4.286;2023-07-16T14:12:12;22.70;99.80
22738;DHT22;11536;50.860;4.286;2023-07-16T14:14:37;22.70;99.70
22738;DHT22;11536;50.860;4.286;2023-07-16T14:17:03;22.70;99.90
22738;DHT22;11536;50.860;4.286;2023-07-16T14:19:29;22.80;99.90
22738;DHT22;11536;50.860;4.286;2023-07-16T14:21:55;22.80;99.90
22738;DHT22;11536;50.860;4.286;2023-07-16T14:24:21;22.80;99.90
22738;DHT22;11536;50.860;4.286;2023-07-16T14:26:46;22.80;99.50
22738;DHT22;11536;50.860;4.286;2023-07-16T14:29:12;22.80;99.40
22738;DHT22;11536;50.860;4.286;2023-07-16T14:31:38;22.80;99.40
22738;DHT22;11536;50.860;4.286;2023-07-16T14:34:03;22.80;99.30
22738;DHT22;11536;50.860;4.286;2023-07-16T14:36:29;22.80;99.20
22738;DHT22;11536;50.860;4.286;2023-07-16T14:38:55;22.80;99.20
22738;DHT22;11536;50.860;4.286;2023-07-16T14:41:20;22.80;99.10
22738;DHT22;11536;50.860;4.286;2023-07-16T14:43:46;22.80;99.20
22738;DHT22;11536;50.860;4.286;2023-07-16T14:46:15;22.80;99.00
22738;DHT22;11536;50.860;4.286;2023-07-16T14:48:45;22.80;99.10
22738;DHT22;11536;50.860;4.286;2023-07-16T14:51:14;22.80;98.90
22738;DHT22;11536;50.860;4.286;2023-07-16T14:53:39;22.90;98.90
22738;DHT22;11536;50.860;4.286;2023-07-16T14:56:05;22.90;98.40
22738;DHT22;11536;50.860;4.286;2023-07-16T14:58:33;22.90;98.90
22738;DHT22;11536;50.860;4.286;2023-07-16T15:01:00;22.90;98.80
22738;DHT22;11536;50.860;4.286;2023-07-16T15:03:29;22.90;98.70
22738;DHT22;11536;50.860;4.286;2023-07-16T15:05:58;23.00;98.80
22738;DHT22;11536;50.860;4.286;2023-07-16T15:08:24;23.00;99.20
22738;DHT22;11536;50.860;4.286;2023-07-16T15:10:52;23.00;98.80
22738;DHT22;11536;50.860;4.286;2023-07-16T15:13:18;23.00;98.60
22738;DHT22;11536;50.860;4.286;2023-07-16T15:15:49;23.00;98.70
22738;DHT22;11536;50.860;4.286;2023-07-16T15:18:15;23.10;98.60
22738;DHT22;11536;50.860;4.286;2023-07-16T15:20:41;23.10;98.60
22738;DHT22;11536;50.860;4.286;2023-07-16T15:23:06;23.10;98.50
22738;DHT22;11536;50.860;4.286;2023-07-16T15:25:32;23.20;98.70
22738;DHT22;11536;50.860;4.286;2023-07-16T15:27:58;23.20;98.70
22738;DHT22;11536;50.860;4.286;2023-07-16T15:30:25;23.30;98.80
22738;DHT22;11536;50.860;4.286;2023-07-16T15:32:51;23.30;98.70
22738;DHT22;11536;50.860;4.286;2023-07-16T15:35:17;23.40;98.60